Time;durP1;ratioP1;P1;durP2;ratioP2;P2;SDS_P1;SDS_P2;PMS_P1;PMS_P2;Temp;Humidity;BMP_temperature;BMP_pressure;BME280_temperature;BME280_humidity;BME280_pressure;Samples;Min_cycle;Max_cycle;Signal;HPM_P1;HPM_P2
2024/03/26 00:01:23;;;;;;;63.90;40.60;;;;;;;1.24;80.13;96390.86;107990;1247;97948;-82
2024/03/26 00:03:49;;;;;;;57.90;38.30;;;;;;;1.23;80.10;96393.59;108025;1236;97972;-81
2024/03/26 00:06:16;;;;;;;58.80;38.30;;;;;;;1.17;79.96;96399.30;108013;1235;102506;-80
2024/03/26 00:08:42;;;;;;;57.90;36.80;;;;;;;1.07;80.00;96396.50;107976;1236;97880;-79
2024/03/26 00:11:09;;;;;;;72.80;47.20;;;;;;;0.99;80.06;96394.55;107968;1236;98021;-84
2024/03/26 00:13:35;;;;;;;80.70;51.80;;;;;;;0.96;80.16;96394.83;108065;1246;97770;-84
2024/03/26 00:16:02;;;;;;;80.10;50.80;;;;;;;0.93;80.38;96395.30;107959;1247;102525;-84
2024/03/26 00:18:29;;;;;;;83.20;48.00;;;;;;;0.90;80.38;96393.50;107994;1235;98041;-84
2024/03/26 00:20:55;;;;;;;73.10;45.20;;;;;;;0.87;80.48;96396.33;107972;1240;98910;-84
2024/03/26 00:23:22;;;;;;;74.30;44.30;;;;;;;0.82;80.45;96398.34;107987;1246;98844;-84
2024/03/26 00:25:49;;;;;;;69.40;42.20;;;;;;;0.77;80.56;96398.62;108037;1241;98080;-85
2024/03/26 00:28:15;;;;;;;71.80;43.10;;;;;;;0.70;80.62;96398.43;108008;1238;100208;-87
2024/03/26 00:30:42;;;;;;;67.80;41.00;;;;;;;0.66;80.58;96398.25;107977;1240;99141;-83
2024/03/26 00:33:08;;;;;;;59.70;40.30;;;;;;;0.64;80.61;96396.57;107931;1240;98821;-80
2024/03/26 00:35:36;;;;;;;54.30;35.40;;;;;;;0.64;80.65;96392.85;108022;1232;98843;-81
2024/03/26 00:38:03;;;;;;;56.60;37.30;;;;;;;0.62;80.58;96391.56;107984;1247;101031;-80
2024/03/26 00:40:29;;;;;;;51.70;35.00;;;;;;;0.59;80.61;96388.81;108008;1236;97921;-80
2024/03/26 00:42:56;;;;;;;46.20;32.90;;;;;;;0.58;80.77;96394.55;107986;1236;98018;-80
2024/03/26 00:45:22;;;;;;;44.10;31.60;;;;;;;0.58;80.77;96392.80;108079;1245;99176;-83
2024/03/26 00:48:01;;;;;;;44.50;32.50;;;;;;;0.59;80.81;96394.12;107996;1236;100191;-81
2024/03/26 00:50:27;;;;;;;42.70;31.50;;;;;;;0.55;80.76;96391.61;107900;1238;99131;-81
2024/03/26 00:52:54;;;;;;;43.50;31.60;;;;;;;0.48;80.75;96389.32;107985;1236;98297;-83
2024/03/26 00:55:20;;;;;;;42.70;28.40;;;;;;;0.44;80.88;96392.59;108064;1238;98130;-84
2024/03/26 00:57:48;;;;;;;39.40;28.80;;;;;;;0.43;80.94;96394.29;108069;1235;103571;-84
2024/03/26 01:00:15;;;;;;;39.50;29.80;;;;;;;0.45;80.97;96399.30;107944;1244;99188;-84
2024/03/26 01:02:42;;;;;;;41.60;30.00;;;;;;;0.45;80.95;96402.91;108041;1236;97972;-80
2024/03/26 01:05:08;;;;;;;35.10;26.30;;;;;;;0.45;80.87;96402.45;108001;1238;99153;-80
2024/03/26 01:07:35;;;;;;;36.40;26.10;;;;;;;0.44;80.78;96401.86;108060;1246;97872;-80
2024/03/26 01:10:01;;;;;;;40.70;28.20;;;;;;;0.44;80.80;96402.91;107893;1239;99123;-81
2024/03/26 01:12:30;;;;;;;36.60;27.10;;;;;;;0.44;80.73;96406.87;107995;1236;97918;-80
2024/03/26 01:14:57;;;;;;;35.40;27.60;;;;;;;0.42;80.63;96410.68;108072;1232;98307;-79
2024/03/26 01:17:23;;;;;;;38.30;29.10;;;;;;;0.40;80.63;96411.45;107960;1241;98034;-83
2024/03/26 01:19:49;;;;;;;38.80;26.10;;;;;;;0.34;80.62;96413.47;107965;1234;97890;-81
2024/03/26 01:22:16;;;;;;;31.90;23.90;;;;;;;0.31;80.61;96412.65;108026;1247;97909;-81
2024/03/26 01:24:42;;;;;;;32.80;24.20;;;;;;;0.31;80.76;96406.64;107998;1232;98322;-82
2024/03/26 01:27:09;;;;;;;31.40;24.00;;;;;;;0.31;80.72;96409.77;107943;1236;97912;-80
2024/03/26 01:29:38;;;;;;;34.20;23.20;;;;;;;0.29;80.67;96412.46;107906;1236;98821;-80
2024/03/26 01:32:05;;;;;;;31.40;23.50;;;;;;;0.29;80.65;96417.30;107925;1236;98372;-80
2024/03/26 01:34:31;;;;;;;32.90;24.00;;;;;;;0.28;80.74;96414.25;107962;1234;98015;-81
2024/03/26 01:36:57;;;;;;;30.90;23.80;;;;;;;0.22;80.66;96411.52;107978;1235;97899;-81
2024/03/26 01:39:24;;;;;;;30.20;23.50;;;;;;;0.16;80.67;96412.56;108065;1236;98018;-82
2024/03/26 01:41:50;;;;;;;32.30;24.40;;;;;;;0.13;80.87;96409.74;107960;1235;98595;-81
2024/03/26 01:44:17;;;;;;;32.30;24.70;;;;;;;0.13;80.93;96410.55;107975;1245;97916;-81
2024/03/26 01:46:43;;;;;;;35.80;27.20;;;;;;;0.14;81.05;96407.84;108009;1236;97918;-82
2024/03/26 01:49:12;;;;;;;39.00;29.00;;;;;;;0.15;81.02;96407.80;108080;1233;97960;-83
2024/03/26 01:51:42;;;;;;;40.60;29.70;;;;;;;0.11;80.99;96407.48;108013;1233;98482;-83
2024/03/26 01:54:11;;;;;;;35.30;23.40;;;;;;;0.09;80.93;96415.86;108013;1236;97922;-82
2024/03/26 01:56:40;;;;;;;36.40;23.50;;;;;;;0.06;81.07;96410.35;108078;1236;98826;-81
2024/03/26 01:59:07;;;;;;;35.70;22.30;;;;;;;0.03;81.09;96410.48;108056;1234;103601;-82
2024/03/26 02:01:37;;;;;;;33.00;21.50;;;;;;;-0.01;81.18;96409.05;107960;1232;97974;-82
2024/03/26 02:04:04;;;;;;;29.70;21.10;;;;;;;-0.02;81.32;96406.09;107981;1237;99966;-82
2024/03/26 02:06:30;;;;;;;29.70;20.90;;;;;;;-0.01;81.33;96407.02;107827;1245;97987;-80
2024/03/26 02:09:00;;;;;;;31.30;21.30;;;;;;;-0.01;81.41;96413.20;108008;1233;97900;-81
2024/03/26 02:11:27;;;;;;;33.40;22.90;;;;;;;-0.02;81.69;96412.46;108060;1236;103674;-80
2024/03/26 02:13:53;;;;;;;29.20;22.40;;;;;;;-0.02;81.67;96413.57;107986;1239;97926;-80
2024/03/26 02:16:20;;;;;;;31.70;22.20;;;;;;;-0.02;81.59;96412.06;107969;1238;99127;-82
2024/03/26 02:18:47;;;;;;;31.90;23.30;;;;;;;-0.01;81.54;96414.63;108040;1236;98800;-82
2024/03/26 02:21:13;;;;;;;42.90;26.20;;;;;;;-0.02;81.37;96412.27;108051;1236;99143;-82
2024/03/26 02:23:40;;;;;;;44.70;25.30;;;;;;;-0.04;81.32;96412.17;108019;1240;100923;-80
2024/03/26 02:26:15;;;;;;;55.00;29.60;;;;;;;-0.06;81.23;96412.41;107952;1245;97948;-81
2024/03/26 02:28:42;;;;;;;61.90;31.80;;;;;;;-0.08;81.15;96410.15;107996;1236;98698;-82
2024/03/26 02:31:09;;;;;;;47.10;26.30;;;;;;;-0.09;81.11;96411.00;107966;1238;99137;-81
2024/03/26 02:33:35;;;;;;;34.50;20.90;;;;;;;-0.12;81.17;96411.42;107997;1236;99131;-81
2024/03/26 02:36:02;;;;;;;29.30;19.90;;;;;;;-0.17;81.19;96413.27;108036;1236;97980;-83
2024/03/26 02:38:28;;;;;;;30.20;22.20;;;;;;;-0.24;81.27;96414.07;107956;1235;97985;-80
2024/03/26 02:40:54;;;;;;;31.90;21.60;;;;;;;-0.27;81.31;96413.15;107984;1232;98271;-81
2024/03/26 02:43:22;;;;;;;35.70;22.00;;;;;;;-0.26;81.44;96413.65;107999;1232;97925;-82
2024/03/26 02:45:48;;;;;;;36.10;23.30;;;;;;;-0.26;81.46;96415.88;107948;1232;97863;-83
2024/03/26 02:48:15;;;;;;;35.20;22.80;;;;;;;-0.26;81.35;96413.58;108017;1236;97890;-79
2024/03/26 02:50:41;;;;;;;36.30;21.50;;;;;;;-0.28;81.24;96415.16;107954;1236;98821;-80
2024/03/26 02:53:08;;;;;;;35.50;22.10;;;;;;;-0.28;81.25;96419.48;108015;1236;99149;-80
2024/03/26 02:55:34;;;;;;;40.50;24.10;;;;;;;-0.29;81.17;96426.50;107994;1239;97894;-82
2024/03/26 02:58:01;;;;;;;40.20;23.00;;;;;;;-0.30;81.19;96430.85;108030;1236;98050;-82
2024/03/26 03:00:27;;;;;;;39.50;24.10;;;;;;;-0.30;81.15;96431.35;108004;1235;98460;-78
2024/03/26 03:02:54;;;;;;;44.80;24.40;;;;;;;-0.35;81.04;96428.14;107938;1245;99130;-79
2024/03/26 03:05:21;;;;;;;38.10;21.40;;;;;;;-0.39;80.98;96427.92;107954;1240;97948;-80
2024/03/26 03:07:47;;;;;;;34.90;21.60;;;;;;;-0.43;80.93;96426.55;107980;1246;97979;-82
2024/03/26 03:10:14;;;;;;;39.40;22.30;;;;;;;-0.46;80.85;96427.50;108061;1233;97957;-83
2024/03/26 03:12:40;;;;;;;36.00;22.50;;;;;;;-0.47;80.92;96429.50;107984;1240;102889;-80
2024/03/26 03:15:07;;;;;;;45.10;24.90;;;;;;;-0.50;81.00;96427.65;107984;1240;98043;-82
2024/03/26 03:17:33;;;;;;;40.40;24.80;;;;;;;-0.53;80.92;96426.00;107921;1247;99220;-81
2024/03/26 03:20:00;;;;;;;44.00;23.90;;;;;;;-0.53;80.94;96426.56;108052;1236;99146;-80
2024/03/26 03:22:27;;;;;;;31.80;20.70;;;;;;;-0.53;81.00;96427.36;107995;1234;102460;-82
2024/03/26 03:24:53;;;;;;;27.70;19.20;;;;;;;-0.56;81.02;96424.93;107992;1236;99123;-80
2024/03/26 03:27:19;;;;;;;29.10;19.20;;;;;;;-0.60;81.17;96424.04;107963;1246;97916;-80
2024/03/26 03:29:49;;;;;;;34.20;20.10;;;;;;;-0.66;81.08;96419.86;108028;1247;97901;-83
2024/03/26 03:32:15;;;;;;;34.20;21.30;;;;;;;-0.70;81.19;96415.35;107994;1245;103367;-80
2024/03/26 03:34:42;;;;;;;37.00;23.70;;;;;;;-0.73;81.19;96412.50;107979;1245;98348;-79
2024/03/26 03:37:08;;;;;;;31.40;20.70;;;;;;;-0.77;81.33;96409.63;107968;1236;97957;-80
2024/03/26 03:39:34;;;;;;;31.70;19.80;;;;;;;-0.80;81.33;96410.77;108082;1233;98983;-80
2024/03/26 03:42:01;;;;;;;26.20;18.50;;;;;;;-0.80;81.39;96416.08;107991;1236;102422;-80
2024/03/26 03:44:30;;;;;;;25.80;18.70;;;;;;;-0.80;81.45;96415.75;107925;1233;99134;-81
2024/03/26 03:46:56;;;;;;;29.30;19.00;;;;;;;-0.81;81.54;96420.32;107975;1236;98838;-81
2024/03/26 03:49:23;;;;;;;25.50;19.30;;;;;;;-0.82;81.52;96422.66;108036;1237;97806;-83
2024/03/26 03:51:51;;;;;;;27.00;18.60;;;;;;;-0.84;81.56;96425.71;107988;1239;97933;-81
2024/03/26 03:54:18;;;;;;;26.20;19.10;;;;;;;-0.84;81.57;96429.62;108009;1233;97871;-81
2024/03/26 03:56:45;;;;;;;23.10;17.70;;;;;;;-0.82;81.50;96433.42;107970;1246;97983;-83
2024/03/26 03:59:11;;;;;;;26.60;19.50;;;;;;;-0.81;81.50;96437.28;108037;1236;99191;-81
2024/03/26 04:01:38;;;;;;;26.40;19.00;;;;;;;-0.83;81.38;96435.55;107915;1233;98393;-82
2024/03/26 04:04:04;;;;;;;28.70;18.20;;;;;;;-0.86;81.25;96431.95;108012;1245;97897;-81
2024/03/26 04:06:31;;;;;;;31.30;19.10;;;;;;;-0.89;81.17;96430.22;108003;1236;97962;-82
2024/03/26 04:08:57;;;;;;;28.60;18.60;;;;;;;-0.91;81.18;96433.16;108030;1237;97934;-82
2024/03/26 04:11:23;;;;;;;32.10;21.10;;;;;;;-0.93;81.18;96433.65;107993;1246;97909;-84
2024/03/26 04:13:50;;;;;;;29.90;20.60;;;;;;;-0.94;81.15;96435.14;107990;1236;98468;-81
2024/03/26 04:16:16;;;;;;;29.30;20.20;;;;;;;-0.93;81.29;96435.05;107947;1233;97899;-80
2024/03/26 04:18:43;;;;;;;31.90;20.40;;;;;;;-0.93;81.33;96435.58;108016;1232;97959;-81
2024/03/26 04:21:09;;;;;;;23.50;16.80;;;;;;;-0.94;81.25;96438.09;107990;1237;99149;-81
2024/03/26 04:23:36;;;;;;;22.40;16.00;;;;;;;-0.95;81.28;96432.89;107962;1245;98100;-81
2024/03/26 04:26:03;;;;;;;25.40;18.30;;;;;;;-0.97;81.26;96430.80;107976;1233;99026;-81
2024/03/26 04:28:29;;;;;;;24.30;17.90;;;;;;;-0.98;81.27;96428.13;108035;1236;97901;-81
2024/03/26 04:30:56;;;;;;;23.40;17.20;;;;;;;-1.00;81.13;96430.44;107985;1236;98420;-82
2024/03/26 04:33:22;;;;;;;25.60;18.80;;;;;;;-1.01;81.22;96426.50;107983;1244;98241;-81
2024/03/26 04:35:49;;;;;;;24.70;18.40;;;;;;;-1.01;81.28;96431.27;107966;1233;97964;-80
2024/03/26 04:38:15;;;;;;;26.80;18.80;;;;;;;-1.02;81.13;96432.82;108029;1247;98005;-83
2024/03/26 04:40:42;;;;;;;27.50;19.10;;;;;;;-1.04;81.03;96434.23;108011;1245;98475;-81
2024/03/26 04:43:09;;;;;;;25.20;18.70;;;;;;;-1.06;81.06;96435.16;107991;1233;99004;-79
2024/03/26 04:45:36;;;;;;;22.10;15.20;;;;;;;-1.09;81.05;96437.01;108011;1237;98830;-81
2024/03/26 04:48:03;;;;;;;17.70;13.70;;;;;;;-1.10;81.02;96436.98;107960;1237;98376;-80
2024/03/26 04:50:29;;;;;;;18.20;14.60;;;;;;;-1.10;81.15;96438.87;107980;1246;98037;-80
2024/03/26 04:52:56;;;;;;;20.90;14.80;;;;;;;-1.09;81.27;96441.56;108085;1245;97896;-81
2024/03/26 04:55:30;;;;;;;19.40;14.50;;;;;;;-1.07;81.22;96442.00;107972;1236;101618;-81
2024/03/26 04:57:57;;;;;;;20.50;15.80;;;;;;;-1.06;81.28;96442.61;108011;1237;98844;-85
2024/03/26 05:00:23;;;;;;;18.50;15.70;;;;;;;-1.05;81.36;96442.17;107935;1247;97965;-80
2024/03/26 05:02:52;;;;;;;21.90;16.00;;;;;;;-1.04;81.34;96445.20;107924;1233;99160;-80
2024/03/26 05:05:19;;;;;;;22.70;15.20;;;;;;;-1.02;81.38;96446.10;107996;1238;97801;-78
2024/03/26 05:07:46;;;;;;;19.50;15.40;;;;;;;-1.04;81.38;96446.05;107977;1245;98012;-81
2024/03/26 05:10:32;;;;;;;21.50;16.00;;;;;;;-1.04;81.48;96443.47;108024;1246;97974;-81
2024/03/26 05:12:59;;;;;;;31.00;23.20;;;;;;;-1.04;81.54;96446.62;107988;1236;98342;-79
2024/03/26 05:15:25;;;;;;;28.60;19.10;;;;;;;-1.04;81.60;96447.48;107937;1240;98021;-81
2024/03/26 05:17:52;;;;;;;25.80;18.60;;;;;;;-1.05;81.54;96446.52;107954;1247;98447;-80
2024/03/26 05:20:18;;;;;;;21.20;15.60;;;;;;;-1.05;81.55;96447.45;107987;1236;98040;-82
2024/03/26 05:22:45;;;;;;;24.40;19.60;;;;;;;-1.05;81.58;96448.34;107964;1244;98516;-82
2024/03/26 05:25:11;;;;;;;26.70;20.50;;;;;;;-1.07;81.60;96449.78;107988;1245;97902;-82
2024/03/26 05:27:38;;;;;;;24.00;19.50;;;;;;;-1.07;81.72;96452.20;108007;1244;98386;-82
2024/03/26 05:30:05;;;;;;;27.50;21.00;;;;;;;-1.06;81.74;96448.77;108011;1242;97907;-82
2024/03/26 05:32:32;;;;;;;45.00;35.30;;;;;;;-1.03;81.85;96449.91;107919;1246;98381;-81
2024/03/26 05:34:58;;;;;;;39.20;29.90;;;;;;;-1.02;81.84;96446.40;107961;1237;98034;-79
2024/03/26 05:37:25;;;;;;;53.10;37.70;;;;;;;-0.98;81.98;96446.83;107979;1237;99149;-80
2024/03/26 05:39:52;;;;;;;60.20;44.70;;;;;;;-0.92;82.17;96446.93;108047;1236;98827;-82
2024/03/26 05:42:18;;;;;;;61.90;42.30;;;;;;;-0.87;82.28;96448.02;107981;1238;98373;-82
2024/03/26 05:44:45;;;;;;;58.60;40.90;;;;;;;-0.85;82.46;96451.95;107998;1240;97980;-82
2024/03/26 05:47:11;;;;;;;58.80;40.00;;;;;;;-0.81;82.41;96449.73;108057;1245;99153;-83
2024/03/26 05:49:37;;;;;;;53.30;37.00;;;;;;;-0.76;82.43;96452.77;108044;1247;97922;-83
2024/03/26 05:52:05;;;;;;;55.90;36.70;;;;;;;-0.71;82.40;96455.27;108013;1237;98395;-80
2024/03/26 05:54:32;;;;;;;45.90;30.50;;;;;;;-0.67;82.42;96451.66;108012;1241;97884;-83
2024/03/26 05:56:58;;;;;;;33.50;24.50;;;;;;;-0.62;82.49;96451.61;108017;1247;97915;-80
2024/03/26 05:59:25;;;;;;;35.60;25.20;;;;;;;-0.57;82.58;96458.14;107999;1243;98552;-83
2024/03/26 06:01:53;;;;;;;46.70;31.20;;;;;;;-0.52;82.65;96455.63;108044;1232;97951;-80
2024/03/26 06:04:19;;;;;;;47.90;35.70;;;;;;;-0.45;82.75;96457.34;108004;1245;102006;-82
2024/03/26 06:06:46;;;;;;;58.40;40.70;;;;;;;-0.38;82.87;96454.78;108018;1237;98381;-80
2024/03/26 06:09:12;;;;;;;53.90;35.10;;;;;;;-0.30;82.94;96453.95;107997;1242;99009;-80
2024/03/26 06:11:39;;;;;;;47.80;32.30;;;;;;;-0.23;83.05;96453.91;108024;1232;99016;-81
2024/03/26 06:14:05;;;;;;;43.70;28.40;;;;;;;-0.16;83.12;96453.65;108018;1240;102102;-80
2024/03/26 06:16:32;;;;;;;43.00;29.00;;;;;;;-0.09;83.10;96452.89;107998;1236;98029;-80
2024/03/26 06:18:58;;;;;;;40.30;28.40;;;;;;;-0.01;83.24;96453.45;107959;1247;98020;-83
2024/03/26 06:21:25;;;;;;;41.70;27.90;;;;;;;0.06;83.30;96453.46;108035;1237;98352;-84
2024/03/26 06:23:52;;;;;;;39.50;27.70;;;;;;;0.15;83.50;96453.34;107996;1237;102208;-84
2024/03/26 06:26:19;;;;;;;40.40;27.70;;;;;;;0.25;83.63;96455.03;107960;1245;101568;-83
2024/03/26 06:28:46;;;;;;;42.10;28.10;;;;;;;0.34;83.59;96453.92;108009;1236;97909;-84
2024/03/26 06:31:12;;;;;;;43.40;28.20;;;;;;;0.43;83.49;96453.29;107972;1241;97927;-81
2024/03/26 06:33:39;;;;;;;44.70;29.10;;;;;;;0.54;83.60;96455.45;108043;1247;97981;-83
2024/03/26 06:36:05;;;;;;;41.70;28.60;;;;;;;0.64;83.75;96451.27;107951;1247;100203;-78
2024/03/26 06:38:32;;;;;;;44.10;30.20;;;;;;;0.75;83.83;96449.06;107961;1247;98803;-79
2024/03/26 06:40:58;;;;;;;39.60;28.20;;;;;;;0.87;83.85;96447.91;107979;1238;97920;-80
2024/03/26 06:43:25;;;;;;;38.00;23.80;;;;;;;0.99;83.74;96446.71;108065;1236;97905;-81
2024/03/26 06:45:52;;;;;;;37.20;25.10;;;;;;;1.09;83.57;96446.38;108001;1237;101083;-79
2024/03/26 06:48:19;;;;;;;39.30;26.30;;;;;;;1.20;83.49;96447.48;108047;1245;99983;-78
2024/03/26 06:50:45;;;;;;;37.30;24.30;;;;;;;1.29;83.43;96444.67;107954;1232;98038;-79
2024/03/26 06:53:12;;;;;;;34.20;23.00;;;;;;;1.37;83.35;96443.01;108000;1237;98040;-78
2024/03/26 06:55:39;;;;;;;31.20;21.40;;;;;;;1.47;83.28;96443.42;107989;1244;97987;-81
2024/03/26 06:58:05;;;;;;;31.60;22.10;;;;;;;1.59;83.12;96448.26;107971;1247;99153;-81
2024/03/26 07:00:32;;;;;;;32.20;21.70;;;;;;;1.67;82.89;96451.15;107925;1237;97977;-84
2024/03/26 07:02:58;;;;;;;34.90;23.00;;;;;;;1.73;82.82;96452.23;107976;1242;97938;-83
2024/03/26 07:05:24;;;;;;;31.10;21.40;;;;;;;1.78;82.65;96448.84;108007;1240;97906;-84
2024/03/26 07:07:51;;;;;;;31.00;21.20;;;;;;;1.83;82.61;96450.17;108058;1245;98863;-82
2024/03/26 07:10:18;;;;;;;30.70;20.70;;;;;;;1.90;82.57;96449.59;107958;1236;98833;-82
2024/03/26 07:12:44;;;;;;;35.00;21.20;;;;;;;1.96;82.47;96450.46;107993;1238;97918;-81
2024/03/26 07:15:11;;;;;;;33.60;20.80;;;;;;;2.02;82.36;96448.27;107986;1245;97890;-81
2024/03/26 07:17:38;;;;;;;33.50;20.80;;;;;;;2.11;82.48;96449.55;108016;1237;98816;-78
2024/03/26 07:20:09;;;;;;;35.30;20.90;;;;;;;2.20;82.45;96450.08;107991;1244;97896;-80
2024/03/26 07:22:37;;;;;;;32.90;21.50;;;;;;;2.28;82.37;96446.40;108047;1238;98333;-79
2024/03/26 07:25:05;;;;;;;32.90;22.10;;;;;;;2.35;82.32;96442.48;107975;1232;103448;-79
2024/03/26 07:27:32;;;;;;;31.50;21.00;;;;;;;2.43;82.12;96439.73;107922;1247;108510;-78
2024/03/26 07:29:59;;;;;;;32.50;19.60;;;;;;;2.51;81.94;96437.59;108006;1237;97893;-79
2024/03/26 07:32:26;;;;;;;30.80;19.60;;;;;;;2.60;81.88;96430.82;108078;1236;98797;-80
2024/03/26 07:34:53;;;;;;;28.80;20.00;;;;;;;2.73;81.93;96431.55;108028;1247;97902;-85
2024/03/26 07:37:19;;;;;;;29.60;19.00;;;;;;;2.91;81.82;96429.31;108042;1238;97912;-86
2024/03/26 07:39:46;;;;;;;33.00;20.00;;;;;;;3.18;81.76;96426.87;108028;1238;98002;-86
2024/03/26 07:42:13;;;;;;;30.70;19.80;;;;;;;3.50;81.45;96426.77;107977;1236;98315;-85
2024/03/26 07:44:40;;;;;;;28.90;18.60;;;;;;;3.85;81.26;96423.21;108003;1244;97989;-86
2024/03/26 07:47:07;;;;;;;24.70;17.00;;;;;;;4.20;80.66;96415.92;108057;1238;98104;-81
2024/03/26 07:49:54;;;;;;;25.80;16.80;;;;;;;4.52;80.13;96413.72;108014;1245;98910;-83
2024/03/26 07:52:20;;;;;;;26.60;16.40;;;;;;;4.90;79.65;96415.17;107977;1234;99227;-82
2024/03/26 07:54:47;;;;;;;22.70;15.60;;;;;;;5.22;79.12;96413.43;107963;1245;97889;-85
2024/03/26 07:57:14;;;;;;;25.90;15.30;;;;;;;5.50;78.44;96406.65;107985;1244;97919;-87
2024/03/26 08:00:20;;;;;;;21.20;15.20;;;;;;;5.76;78.13;96405.36;108059;1232;99182;-85
2024/03/26 08:02:47;;;;;;;22.40;14.60;;;;;;;6.17;78.14;96396.83;107978;1247;99131;-79
2024/03/26 08:05:54;;;;;;;21.70;14.60;;;;;;;6.55;77.43;96391.65;107997;1236;98840;-78
2024/03/26 08:08:23;;;;;;;20.80;13.70;;;;;;;6.96;76.10;96383.41;107978;1237;98376;-79
2024/03/26 08:11:15;;;;;;;18.00;12.70;;;;;;;7.29;75.64;96383.57;107974;1237;103578;-86
2024/03/26 08:14:07;;;;;;;18.40;11.80;;;;;;;7.71;74.85;96374.81;107872;1238;100306;-79
2024/03/26 08:16:44;;;;;;;15.10;11.40;;;;;;;8.07;73.31;96369.27;107975;1237;98873;-81
2024/03/26 08:19:23;;;;;;;17.60;12.00;;;;;;;8.31;72.08;96363.30;107983;1232;97899;-78
2024/03/26 08:22:08;;;;;;;13.40;10.30;;;;;;;8.61;72.34;96359.86;107991;1236;98431;-79
2024/03/26 08:24:58;;;;;;;15.90;10.70;;;;;;;8.84;71.36;96359.13;107998;1237;102603;-79
2024/03/26 08:27:49;;;;;;;16.80;11.20;;;;;;;9.16;70.38;96356.94;107939;1240;101322;-79
2024/03/26 08:30:37;;;;;;;15.60;11.30;;;;;;;9.41;69.81;96353.15;107960;1245;98897;-78
2024/03/26 08:33:24;;;;;;;16.20;11.10;;;;;;;9.59;69.53;96353.67;107981;1247;97870;-79
2024/03/26 08:36:12;;;;;;;15.70;11.40;;;;;;;9.91;68.48;96351.34;107953;1247;98416;-78
2024/03/26 08:39:19;;;;;;;15.90;11.60;;;;;;;10.16;67.82;96348.68;107967;1247;103440;-77
2024/03/26 08:41:50;;;;;;;14.00;10.50;;;;;;;10.45;67.75;96345.95;107879;1247;100302;-79
2024/03/26 08:44:46;;;;;;;16.90;11.20;;;;;;;10.57;67.47;96344.96;107905;1238;100225;-78
2024/03/26 08:47:39;;;;;;;13.10;10.10;;;;;;;10.85;68.32;96343.99;107847;1244;97989;-78
2024/03/26 08:50:46;;;;;;;13.40;9.40;;;;;;;11.31;67.93;96339.73;107885;1237;98781;-79
2024/03/26 08:53:53;;;;;;;14.20;9.60;;;;;;;11.78;66.28;96333.56;107922;1244;101937;-78
2024/03/26 08:56:35;;;;;;;15.10;10.70;;;;;;;12.08;65.75;96324.75;107975;1238;100920;-79
2024/03/26 08:59:33;;;;;;;12.70;9.60;;;;;;;12.38;64.66;96322.23;108012;1233;98816;-79
2024/03/26 09:02:02;;;;;;;12.90;9.40;;;;;;;12.44;63.82;96324.42;107973;1237;97982;-82
2024/03/26 09:04:46;;;;;;;13.20;9.30;;;;;;;12.51;63.66;96319.59;107932;1232;99128;-85
2024/03/26 09:07:53;;;;;;;12.60;9.10;;;;;;;12.64;63.71;96321.98;107991;1237;102872;-82
2024/03/26 09:10:20;;;;;;;13.00;9.40;;;;;;;12.94;63.21;96321.19;107823;1233;101343;-85
2024/03/26 09:13:27;;;;;;;12.50;9.40;;;;;;;13.08;62.56;96318.04;107835;1239;99127;-82
2024/03/26 09:16:34;;;;;;;12.60;9.30;;;;;;;13.23;62.52;96314.29;107802;1246;97883;-79
2024/03/26 09:19:40;;;;;;;12.60;10.00;;;;;;;13.44;61.54;96308.54;107858;1238;99047;-78
2024/03/26 09:22:37;;;;;;;12.20;8.60;;;;;;;13.52;61.25;96308.04;107837;1239;102156;-78
2024/03/26 09:25:44;;;;;;;10.20;7.50;;;;;;;13.77;61.05;96304.02;107846;1246;100213;-78
2024/03/26 09:28:52;;;;;;;14.50;9.20;;;;;;;14.03;60.30;96297.52;107877;1245;100571;-77
2024/03/26 09:31:42;;;;;;;15.60;9.40;;;;;;;14.33;59.82;96294.79;107674;1240;99272;-82
2024/03/26 09:34:25;;;;;;;9.40;7.80;;;;;;;14.51;59.67;96290.15;107860;1246;99646;-84
2024/03/26 09:37:22;;;;;;;11.50;8.00;;;;;;;14.66;59.10;96285.30;107884;1247;104775;-83
2024/03/26 09:40:29;;;;;;;13.00;9.00;;;;;;;14.81;58.95;96279.60;107865;1243;100348;-82
2024/03/26 09:43:22;;;;;;;10.10;7.70;;;;;;;15.17;58.61;96275.32;107869;1245;99975;-86
2024/03/26 09:46:13;;;;;;;10.40;7.70;;;;;;;15.44;57.64;96272.40;107789;1247;100520;-83
2024/03/26 09:49:01;;;;;;;11.40;8.30;;;;;;;15.56;57.08;96266.89;107889;1248;100478;-83
2024/03/26 09:52:09;;;;;;;10.00;7.70;;;;;;;15.80;56.20;96261.10;107887;1235;104659;-87
2024/03/26 09:54:59;;;;;;;8.60;7.00;;;;;;;16.06;55.88;96258.48;107892;1244;100258;-82
2024/03/26 09:57:53;;;;;;;9.40;7.00;;;;;;;16.29;54.81;96255.45;107861;1237;99981;-83
2024/03/26 10:00:41;;;;;;;8.90;6.90;;;;;;;16.38;53.41;96248.14;107802;1245;99328;-83
2024/03/26 10:03:40;;;;;;;8.70;5.90;;;;;;;16.56;53.50;96242.27;107836;1248;99770;-82
2024/03/26 10:06:47;;;;;;;6.70;5.40;;;;;;;16.87;53.17;96237.42;107879;1245;104596;-83
2024/03/26 10:09:37;;;;;;;5.30;4.60;;;;;;;17.26;52.52;96234.11;107860;1248;101400;-83
2024/03/26 10:12:23;;;;;;;5.40;4.30;;;;;;;17.61;51.69;96231.27;107861;1244;99630;-83
2024/03/26 10:15:25;;;;;;;4.80;3.60;;;;;;;17.85;50.76;96230.00;107861;1238;99624;-84
2024/03/26 10:18:22;;;;;;;4.90;3.30;;;;;;;17.95;48.54;96226.70;107939;1237;99771;-76
2024/03/26 10:21:04;;;;;;;4.80;3.40;;;;;;;17.94;47.70;96229.59;107935;1239;103294;-76
2024/03/26 10:24:12;;;;;;;3.20;2.50;;;;;;;18.18;48.18;96228.73;107926;1234;100279;-75
2024/03/26 10:26:41;;;;;;;2.20;1.60;;;;;;;18.50;46.48;96221.56;107830;1237;99263;-86
2024/03/26 10:29:52;;;;;;;1.20;1.10;;;;;;;18.76;45.60;96222.61;107695;1242;99221;-78
2024/03/26 10:32:48;;;;;;;2.00;1.20;;;;;;;18.92;43.51;96217.42;107772;1234;100492;-78
2024/03/26 10:35:55;;;;;;;1.40;1.20;;;;;;;19.10;43.91;96215.55;107816;1247;103749;-79
2024/03/26 10:39:06;;;;;;;3.20;1.10;;;;;;;19.31;41.46;96217.27;107832;1244;101251;-78
2024/03/26 10:42:01;;;;;;;1.90;1.30;;;;;;;19.15;39.57;96218.16;107854;1235;99419;-77
2024/03/26 10:44:48;;;;;;;1.20;1.10;;;;;;;19.01;40.45;96214.20;107762;1238;99228;-79
2024/03/26 10:47:18;;;;;;;1.50;1.10;;;;;;;18.81;40.56;96216.20;107701;1237;99681;-87
2024/03/26 10:50:16;;;;;;;2.50;1.10;;;;;;;18.78;40.10;96214.72;107907;1237;104641;-89
2024/03/26 10:52:52;;;;;;;1.90;1.00;;;;;;;18.47;38.53;96206.08;107817;1238;101495;-87
2024/03/26 10:55:31;;;;;;;2.00;1.10;;;;;;;18.43;39.73;96204.54;107838;1248;100022;-86
2024/03/26 10:58:38;;;;;;;3.80;1.30;;;;;;;18.27;36.19;96202.08;107819;1240;99358;-87
2024/03/26 11:01:35;;;;;;;1.50;1.10;;;;;;;17.49;35.58;96209.23;107748;1239;99743;-76
2024/03/26 11:04:15;;;;;;;1.10;1.00;;;;;;;17.39;37.34;96212.48;107866;1235;104471;-87
2024/03/26 11:06:54;;;;;;;1.30;1.10;;;;;;;17.58;36.38;96208.96;107897;1243;100220;-82
2024/03/26 11:09:25;;;;;;;1.60;1.20;;;;;;;17.60;36.56;96203.66;107857;1238;99282;-81
2024/03/26 11:12:12;;;;;;;1.20;1.10;;;;;;;17.86;36.13;96197.73;107887;1235;99245;-81
2024/03/26 11:14:57;;;;;;;1.40;1.30;;;;;;;18.27;36.30;96190.40;107861;1239;99749;-83
2024/03/26 16:12:28;;;;;;;6.00;3.20;;;;;;;13.15;36.98;95857.13;105186;1268;100932;-80
2024/03/26 16:14:55;;;;;;;7.20;4.00;;;;;;;13.11;37.11;95856.55;106682;1252;97812;-79
2024/03/26 16:17:21;;;;;;;8.60;3.60;;;;;;;13.09;37.18;95852.52;106691;1251;97860;-73
2024/03/26 16:19:49;;;;;;;5.00;3.40;;;;;;;13.06;37.47;95847.95;106750;1262;96809;-73
2024/03/26 16:22:16;;;;;;;7.10;3.30;;;;;;;13.02;37.72;95846.91;106796;1259;102205;-73
2024/03/26 16:24:42;;;;;;;6.00;2.50;;;;;;;12.96;37.78;95843.10;106714;1249;97437;-73
2024/03/26 16:27:10;;;;;;;3.80;2.50;;;;;;;12.90;38.03;95838.69;106702;1251;97222;-73
2024/03/26 16:29:36;;;;;;;4.20;2.70;;;;;;;12.84;38.22;95839.52;106653;1252;96569;-73
2024/03/26 16:32:04;;;;;;;6.70;3.30;;;;;;;12.79;38.32;95838.73;106672;1258;97153;-80
2024/03/26 16:34:31;;;;;;;5.20;3.30;;;;;;;12.70;38.22;95837.55;106789;1258;97881;-80
2024/03/26 16:36:58;;;;;;;3.30;2.80;;;;;;;12.63;38.59;95832.05;106672;1251;98915;-80